Time;durP1;ratioP1;P1;durP2;ratioP2;P2;SDS_P1;SDS_P2;PMS_P1;PMS_P2;Temp;Humidity;BMP_temperature;BMP_pressure;BME280_temperature;BME280_humidity;BME280_pressure;Samples;Min_cycle;Max_cycle;Signal;HPM_P1;HPM_P2
2022/08/17 00:00:17;;;;;;;7.500001;6.849999;;;;;;;16.58;58.79492;94816.83;;;;
2022/08/17 00:01:22;;;;;;;7.500001;6.849999;;;;;;;16.58;58.79492;94816.83;;;;
2022/08/17 00:02:26;;;;;;;7.500001;6.849999;;;;;;;16.58;58.79492;94816.83;;;;
2022/08/17 00:03:27;;;;;;;7.500001;6.849999;;;;;;;16.58;58.79492;94816.83;;;;
2022/08/17 00:04:30;;;;;;;8.25;7.3;;;;;;;16.47;59.18652;94798.61;;;;
2022/08/17 00:05:30;;;;;;;8.25;7.3;;;;;;;16.47;59.18652;94798.61;;;;
2022/08/17 00:06:34;;;;;;;8.25;7.3;;;;;;;16.47;59.18652;94798.61;;;;
2022/08/17 00:07:35;;;;;;;8.25;7.3;;;;;;;16.47;59.18652;94798.61;;;;
2022/08/17 00:08:35;;;;;;;8.25;7.3;;;;;;;16.47;59.18652;94798.61;;;;
2022/08/17 00:09:40;;;;;;;8.25;7.3;;;;;;;16.47;59.18652;94798.61;;;;
2022/08/17 00:10:41;;;;;;;8.25;7.3;;;;;;;16.47;59.18652;94798.61;;;;
2022/08/17 00:11:43;;;;;;;8.25;7.3;;;;;;;16.47;59.18652;94798.61;;;;
2022/08/17 00:12:44;;;;;;;8.25;7.3;;;;;;;16.47;59.18652;94798.61;;;;
2022/08/17 00:13:45;;;;;;;8.25;7.3;;;;;;;16.47;59.18652;94798.61;;;;
2022/08/17 00:14:50;;;;;;;7.8;6.95;;;;;;;16.44;59.51172;94795.11;;;;
2022/08/17 00:15:50;;;;;;;7.8;6.95;;;;;;;16.44;59.51172;94795.11;;;;
2022/08/17 00:16:53;;;;;;;7.8;6.95;;;;;;;16.44;59.51172;94795.11;;;;
2022/08/17 00:17:54;;;;;;;7.8;6.95;;;;;;;16.44;59.51172;94795.11;;;;
2022/08/17 00:18:54;;;;;;;7.8;6.95;;;;;;;16.44;59.51172;94795.11;;;;
2022/08/17 00:19:55;;;;;;;7.8;6.95;;;;;;;16.44;59.51172;94795.11;;;;
2022/08/17 00:20:56;;;;;;;7.8;6.95;;;;;;;16.44;59.51172;94795.11;;;;
2022/08/17 00:22:01;;;;;;;7.8;6.95;;;;;;;16.44;59.51172;94795.11;;;;
2022/08/17 00:23:02;;;;;;;7.8;6.95;;;;;;;16.44;59.51172;94795.11;;;;
2022/08/17 00:24:05;;;;;;;7.8;6.95;;;;;;;16.44;59.51172;94795.11;;;;
2022/08/17 00:25:06;;;;;;;7.75;7.05;;;;;;;16.33;59.83496;94780.64;;;;
2022/08/17 00:26:11;;;;;;;7.75;7.05;;;;;;;16.33;59.83496;94780.64;;;;
2022/08/17 00:27:13;;;;;;;7.75;7.05;;;;;;;16.33;59.83496;94780.64;;;;
2022/08/17 00:28:14;;;;;;;7.75;7.05;;;;;;;16.33;59.83496;94780.64;;;;
2022/08/17 00:29:15;;;;;;;7.75;7.05;;;;;;;16.33;59.83496;94780.64;;;;
2022/08/17 00:30:16;;;;;;;7.75;7.05;;;;;;;16.33;59.83496;94780.64;;;;
2022/08/17 00:31:16;;;;;;;7.75;7.05;;;;;;;16.33;59.83496;94780.64;;;;
2022/08/17 00:32:17;;;;;;;7.75;7.05;;;;;;;16.33;59.83496;94780.64;;;;
2022/08/17 00:33:18;;;;;;;7.75;7.05;;;;;;;16.33;59.83496;94780.64;;;;
2022/08/17 00:34:24;;;;;;;7.75;7.05;;;;;;;16.33;59.83496;94780.64;;;;
2022/08/17 00:35:26;;;;;;;7.75;7.05;;;;;;;16.33;59.83496;94780.64;;;;
2022/08/17 00:36:27;;;;;;;7.25;6.649999;;;;;;;16.26;60.21973;94776.87;;;;
2022/08/17 00:37:27;;;;;;;7.25;6.649999;;;;;;;16.26;60.21973;94776.87;;;;
2022/08/17 00:38:28;;;;;;;7.25;6.649999;;;;;;;16.26;60.21973;94776.87;;;;
2022/08/17 00:39:29;;;;;;;7.25;6.649999;;;;;;;16.26;60.21973;94776.87;;;;
2022/08/17 00:40:29;;;;;;;7.25;6.649999;;;;;;;16.26;60.21973;94776.87;;;;
2022/08/17 00:41:30;;;;;;;7.25;6.649999;;;;;;;16.26;60.21973;94776.87;;;;
2022/08/17 00:42:31;;;;;;;7.25;6.649999;;;;;;;16.26;60.21973;94776.87;;;;
2022/08/17 00:43:32;;;;;;;7.25;6.649999;;;;;;;16.26;60.21973;94776.87;;;;
2022/08/17 00:44:37;;;;;;;7.25;6.649999;;;;;;;16.26;60.21973;94776.87;;;;
2022/08/17 00:45:37;;;;;;;7.25;6.649999;;;;;;;16.26;60.21973;94776.87;;;;
2022/08/17 00:46:39;;;;;;;7.35;6.749999;;;;;;;16.12;60.56152;94772.66;;;;
2022/08/17 00:47:42;;;;;;;7.35;6.749999;;;;;;;16.12;60.56152;94772.66;;;;
2022/08/17 00:48:43;;;;;;;7.35;6.749999;;;;;;;16.12;60.56152;94772.66;;;;
2022/08/17 00:49:44;;;;;;;7.35;6.749999;;;;;;;16.12;60.56152;94772.66;;;;
2022/08/17 00:50:45;;;;;;;7.35;6.749999;;;;;;;16.12;60.56152;94772.66;;;;
2022/08/17 00:51:56;;;;;;;7.35;6.749999;;;;;;;16.12;60.56152;94772.66;;;;
2022/08/17 00:53:02;;;;;;;7.35;6.749999;;;;;;;16.12;60.56152;94772.66;;;;
2022/08/17 00:54:04;;;;;;;7.35;6.749999;;;;;;;16.12;60.56152;94772.66;;;;
2022/08/17 00:55:10;;;;;;;7.35;6.749999;;;;;;;16.12;60.56152;94772.66;;;;
2022/08/17 00:56:10;;;;;;;7.35;6.749999;;;;;;;16.12;60.56152;94772.66;;;;
2022/08/17 00:57:27;;;;;;;7.25;6.55;;;;;;;16.05;61.01074;94761.97;;;;
2022/08/17 00:58:31;;;;;;;7.25;6.55;;;;;;;16.05;61.01074;94761.97;;;;
2022/08/17 00:59:32;;;;;;;7.25;6.55;;;;;;;16.05;61.01074;94761.97;;;;
2022/08/17 01:00:37;;;;;;;7.25;6.55;;;;;;;16.05;61.01074;94761.97;;;;
2022/08/17 01:01:41;;;;;;;7.25;6.55;;;;;;;16.05;61.01074;94761.97;;;;
2022/08/17 01:02:42;;;;;;;7.25;6.55;;;;;;;16.05;61.01074;94761.97;;;;
2022/08/17 01:03:45;;;;;;;7.25;6.55;;;;;;;16.05;61.01074;94761.97;;;;
2022/08/17 01:04:46;;;;;;;7.25;6.55;;;;;;;16.05;61.01074;94761.97;;;;
2022/08/17 01:05:49;;;;;;;7.25;6.55;;;;;;;16.05;61.01074;94761.97;;;;
2022/08/17 01:06:52;;;;;;;7.25;6.55;;;;;;;16.05;61.01074;94761.97;;;;
2022/08/17 01:07:56;;;;;;;7.7;6.900001;;;;;;;15.93;61.27051;94760.28;;;;
2022/08/17 01:08:58;;;;;;;7.7;6.900001;;;;;;;15.93;61.27051;94760.28;;;;
2022/08/17 01:09:59;;;;;;;7.7;6.900001;;;;;;;15.93;61.27051;94760.28;;;;
2022/08/17 01:11:05;;;;;;;7.7;6.900001;;;;;;;15.93;61.27051;94760.28;;;;
2022/08/17 01:12:07;;;;;;;7.7;6.900001;;;;;;;15.93;61.27051;94760.28;;;;
2022/08/17 01:13:10;;;;;;;7.7;6.900001;;;;;;;15.93;61.27051;94760.28;;;;
2022/08/17 01:14:12;;;;;;;7.7;6.900001;;;;;;;15.93;61.27051;94760.28;;;;
2022/08/17 01:15:12;;;;;;;7.7;6.900001;;;;;;;15.93;61.27051;94760.28;;;;
2022/08/17 01:16:14;;;;;;;7.7;6.900001;;;;;;;15.93;61.27051;94760.28;;;;
2022/08/17 01:17:20;;;;;;;7.7;6.900001;;;;;;;15.93;61.27051;94760.28;;;;
2022/08/17 01:18:20;;;;;;;8.1;7.3;;;;;;;15.86;61.64258;94764.64;;;;
2022/08/17 01:19:21;;;;;;;8.1;7.3;;;;;;;15.86;61.64258;94764.64;;;;
2022/08/17 01:20:25;;;;;;;8.1;7.3;;;;;;;15.86;61.64258;94764.64;;;;
2022/08/17 01:21:26;;;;;;;8.1;7.3;;;;;;;15.86;61.64258;94764.64;;;;
2022/08/17 01:22:35;;;;;;;8.1;7.3;;;;;;;15.86;61.64258;94764.64;;;;
2022/08/17 01:23:37;;;;;;;8.1;7.3;;;;;;;15.86;61.64258;94764.64;;;;
2022/08/17 01:24:37;;;;;;;8.1;7.3;;;;;;;15.86;61.64258;94764.64;;;;
2022/08/17 01:25:41;;;;;;;8.1;7.3;;;;;;;15.86;61.64258;94764.64;;;;
2022/08/17 01:26:42;;;;;;;8.1;7.3;;;;;;;15.86;61.64258;94764.64;;;;
2022/08/17 01:27:44;;;;;;;8.1;7.3;;;;;;;15.86;61.64258;94764.64;;;;
2022/08/17 01:28:45;;;;;;;8.1;7.3;;;;;;;15.86;61.64258;94764.64;;;;
2022/08/17 01:29:47;;;;;;;7.849999;7.149999;;;;;;;15.72;62.02539;94761.75;;;;
2022/08/17 01:30:51;;;;;;;7.849999;7.149999;;;;;;;15.72;62.02539;94761.75;;;;
2022/08/17 01:31:54;;;;;;;7.849999;7.149999;;;;;;;15.72;62.02539;94761.75;;;;
2022/08/17 01:32:58;;;;;;;7.849999;7.149999;;;;;;;15.72;62.02539;94761.75;;;;
2022/08/17 01:33:59;;;;;;;7.849999;7.149999;;;;;;;15.72;62.02539;94761.75;;;;
2022/08/17 01:35:03;;;;;;;7.849999;7.149999;;;;;;;15.72;62.02539;94761.75;;;;
2022/08/17 01:36:06;;;;;;;7.849999;7.149999;;;;;;;15.72;62.02539;94761.75;;;;
2022/08/17 01:37:08;;;;;;;7.849999;7.149999;;;;;;;15.72;62.02539;94761.75;;;;
2022/08/17 01:38:09;;;;;;;7.849999;7.149999;;;;;;;15.72;62.02539;94761.75;;;;
2022/08/17 01:39:10;;;;;;;7.849999;7.149999;;;;;;;15.72;62.02539;94761.75;;;;
2022/08/17 01:40:20;;;;;;;7.9;7.1;;;;;;;15.66;62.38965;94771.56;;;;
2022/08/17 01:41:27;;;;;;;7.9;7.1;;;;;;;15.66;62.38965;94771.56;;;;
2022/08/17 01:42:28;;;;;;;7.9;7.1;;;;;;;15.66;62.38965;94771.56;;;;
2022/08/17 01:43:33;;;;;;;7.9;7.1;;;;;;;15.66;62.38965;94771.56;;;;
2022/08/17 01:44:40;;;;;;;7.9;7.1;;;;;;;15.66;62.38965;94771.56;;;;
2022/08/17 01:45:41;;;;;;;7.9;7.1;;;;;;;15.66;62.38965;94771.56;;;;
2022/08/17 01:46:45;;;;;;;7.9;7.1;;;;;;;15.66;62.38965;94771.56;;;;
2022/08/17 01:47:46;;;;;;;7.9;7.1;;;;;;;15.66;62.38965;94771.56;;;;
2022/08/17 01:48:47;;;;;;;7.9;7.1;;;;;;;15.66;62.38965;94771.56;;;;
2022/08/17 01:49:47;;;;;;;7.9;7.1;;;;;;;15.66;62.38965;94771.56;;;;
2022/08/17 01:50:48;;;;;;;8.15;7.249999;;;;;;;15.55;62.82129;94761.49;;;;
2022/08/17 01:51:50;;;;;;;8.15;7.249999;;;;;;;15.55;62.82129;94761.49;;;;
2022/08/17 01:52:51;;;;;;;8.15;7.249999;;;;;;;15.55;62.82129;94761.49;;;;
2022/08/17 01:53:56;;;;;;;8.15;7.249999;;;;;;;15.55;62.82129;94761.49;;;;
2022/08/17 01:55:00;;;;;;;8.15;7.249999;;;;;;;15.55;62.82129;94761.49;;;;
2022/08/17 01:56:01;;;;;;;8.15;7.249999;;;;;;;15.55;62.82129;94761.49;;;;
2022/08/17 01:57:07;;;;;;;8.15;7.249999;;;;;;;15.55;62.82129;94761.49;;;;
2022/08/17 01:58:08;;;;;;;8.15;7.249999;;;;;;;15.55;62.82129;94761.49;;;;
2022/08/17 01:59:09;;;;;;;8.15;7.249999;;;;;;;15.55;62.82129;94761.49;;;;
2022/08/17 02:00:10;;;;;;;8.15;7.249999;;;;;;;15.55;62.82129;94761.49;;;;
2022/08/17 02:01:13;;;;;;;7.600001;7.000001;;;;;;;15.52;63.24316;94757.08;;;;
2022/08/17 02:02:16;;;;;;;7.600001;7.000001;;;;;;;15.52;63.24316;94757.08;;;;
2022/08/17 02:03:17;;;;;;;7.600001;7.000001;;;;;;;15.52;63.24316;94757.08;;;;
2022/08/17 02:04:18;;;;;;;7.600001;7.000001;;;;;;;15.52;63.24316;94757.08;;;;
2022/08/17 02:05:19;;;;;;;7.600001;7.000001;;;;;;;15.52;63.24316;94757.08;;;;
2022/08/17 02:06:19;;;;;;;7.600001;7.000001;;;;;;;15.52;63.24316;94757.08;;;;
2022/08/17 02:07:20;;;;;;;7.600001;7.000001;;;;;;;15.52;63.24316;94757.08;;;;
2022/08/17 02:08:21;;;;;;;7.600001;7.000001;;;;;;;15.52;63.24316;94757.08;;;;
2022/08/17 02:09:22;;;;;;;7.600001;7.000001;;;;;;;15.52;63.24316;94757.08;;;;
2022/08/17 02:10:24;;;;;;;7.600001;7.000001;;;;;;;15.52;63.24316;94757.08;;;;
2022/08/17 02:11:25;;;;;;;7.600001;7.000001;;;;;;;15.52;63.24316;94757.08;;;;
2022/08/17 02:12:25;;;;;;;8.799999;7.05;;;;;;;15.41;63.48926;94761.25;;;;
2022/08/17 02:13:28;;;;;;;8.799999;7.05;;;;;;;15.41;63.48926;94761.25;;;;
2022/08/17 02:14:29;;;;;;;8.799999;7.05;;;;;;;15.41;63.48926;94761.25;;;;
2022/08/17 02:15:29;;;;;;;8.799999;7.05;;;;;;;15.41;63.48926;94761.25;;;;
2022/08/17 02:16:30;;;;;;;8.799999;7.05;;;;;;;15.41;63.48926;94761.25;;;;
2022/08/17 02:17:33;;;;;;;8.799999;7.05;;;;;;;15.41;63.48926;94761.25;;;;
2022/08/17 02:18:34;;;;;;;8.799999;7.05;;;;;;;15.41;63.48926;94761.25;;;;
2022/08/17 02:19:35;;;;;;;8.799999;7.05;;;;;;;15.41;63.48926;94761.25;;;;
2022/08/17 02:20:37;;;;;;;8.799999;7.05;;;;;;;15.41;63.48926;94761.25;;;;
2022/08/17 02:21:37;;;;;;;8.799999;7.05;;;;;;;15.41;63.48926;94761.25;;;;
2022/08/17 02:22:40;;;;;;;8.000001;7.299999;;;;;;;15.36;63.97363;94774.49;;;;
2022/08/17 02:23:43;;;;;;;8.000001;7.299999;;;;;;;15.36;63.97363;94774.49;;;;
2022/08/17 02:24:46;;;;;;;8.000001;7.299999;;;;;;;15.36;63.97363;94774.49;;;;
2022/08/17 02:25:47;;;;;;;8.000001;7.299999;;;;;;;15.36;63.97363;94774.49;;;;
2022/08/17 02:26:48;;;;;;;8.000001;7.299999;;;;;;;15.36;63.97363;94774.49;;;;
2022/08/17 02:27:49;;;;;;;8.000001;7.299999;;;;;;;15.36;63.97363;94774.49;;;;
2022/08/17 02:28:50;;;;;;;8.000001;7.299999;;;;;;;15.36;63.97363;94774.49;;;;
2022/08/17 02:29:51;;;;;;;8.000001;7.299999;;;;;;;15.36;63.97363;94774.49;;;;
2022/08/17 02:30:51;;;;;;;8.000001;7.299999;;;;;;;15.36;63.97363;94774.49;;;;
2022/08/17 02:31:51;;;;;;;8.000001;7.299999;;;;;;;15.36;63.97363;94774.49;;;;
2022/08/17 02:32:52;;;;;;;8.000001;7.299999;;;;;;;15.36;63.97363;94774.49;;;;
2022/08/17 02:33:53;;;;;;;8.15;7.400001;;;;;;;15.25;64.2627;94747.5;;;;
2022/08/17 02:34:53;;;;;;;8.15;7.400001;;;;;;;15.25;64.2627;94747.5;;;;
2022/08/17 02:35:56;;;;;;;8.15;7.400001;;;;;;;15.25;64.2627;94747.5;;;;
2022/08/17 02:36:57;;;;;;;8.15;7.400001;;;;;;;15.25;64.2627;94747.5;;;;
2022/08/17 02:37:57;;;;;;;8.15;7.400001;;;;;;;15.25;64.2627;94747.5;;;;
2022/08/17 02:38:58;;;;;;;8.15;7.400001;;;;;;;15.25;64.2627;94747.5;;;;
2022/08/17 02:39:59;;;;;;;8.15;7.400001;;;;;;;15.25;64.2627;94747.5;;;;
2022/08/17 02:41:00;;;;;;;8.15;7.400001;;;;;;;15.25;64.2627;94747.5;;;;
2022/08/17 02:42:00;;;;;;;8.15;7.400001;;;;;;;15.25;64.2627;94747.5;;;;
2022/08/17 02:43:02;;;;;;;8.15;7.400001;;;;;;;15.25;64.2627;94747.5;;;;
2022/08/17 02:44:04;;;;;;;8.35;7.45;;;;;;;15.22;64.56348;94741.77;;;;
2022/08/17 02:45:05;;;;;;;8.35;7.45;;;;;;;15.22;64.56348;94741.77;;;;
2022/08/17 02:46:11;;;;;;;8.35;7.45;;;;;;;15.22;64.56348;94741.77;;;;
2022/08/17 02:47:12;;;;;;;8.35;7.45;;;;;;;15.22;64.56348;94741.77;;;;
2022/08/17 02:48:12;;;;;;;8.35;7.45;;;;;;;15.22;64.56348;94741.77;;;;
2022/08/17 02:49:14;;;;;;;8.35;7.45;;;;;;;15.22;64.56348;94741.77;;;;
2022/08/17 02:50:14;;;;;;;8.35;7.45;;;;;;;15.22;64.56348;94741.77;;;;
2022/08/17 02:51:18;;;;;;;8.35;7.45;;;;;;;15.22;64.56348;94741.77;;;;
2022/08/17 02:52:19;;;;;;;8.35;7.45;;;;;;;15.22;64.56348;94741.77;;;;
2022/08/17 02:53:20;;;;;;;8.35;7.45;;;;;;;15.22;64.56348;94741.77;;;;
2022/08/17 02:54:20;;;;;;;8.049999;7.349999;;;;;;;15.12;64.93066;94735.01;;;;
2022/08/17 02:55:21;;;;;;;8.049999;7.349999;;;;;;;15.12;64.93066;94735.01;;;;
2022/08/17 02:56:23;;;;;;;8.049999;7.349999;;;;;;;15.12;64.93066;94735.01;;;;
2022/08/17 02:57:24;;;;;;;8.049999;7.349999;;;;;;;15.12;64.93066;94735.01;;;;
2022/08/17 02:58:24;;;;;;;8.049999;7.349999;;;;;;;15.12;64.93066;94735.01;;;;
2022/08/17 02:59:25;;;;;;;8.049999;7.349999;;;;;;;15.12;64.93066;94735.01;;;;
2022/08/17 03:00:27;;;;;;;8.049999;7.349999;;;;;;;15.12;64.93066;94735.01;;;;
2022/08/17 03:01:31;;;;;;;8.049999;7.349999;;;;;;;15.12;64.93066;94735.01;;;;
2022/08/17 03:02:31;;;;;;;8.049999;7.349999;;;;;;;15.12;64.93066;94735.01;;;;
2022/08/17 03:03:37;;;;;;;8.049999;7.349999;;;;;;;15.12;64.93066;94735.01;;;;
2022/08/17 03:04:38;;;;;;;8.049999;7.349999;;;;;;;15.12;64.93066;94735.01;;;;
2022/08/17 03:05:38;;;;;;;10.35;7;;;;;;;15.08;65.19727;94716.19;;;;
2022/08/17 03:06:39;;;;;;;10.35;7;;;;;;;15.08;65.19727;94716.19;;;;
2022/08/17 03:07:39;;;;;;;10.35;7;;;;;;;15.08;65.19727;94716.19;;;;
2022/08/17 03:08:40;;;;;;;10.35;7;;;;;;;15.08;65.19727;94716.19;;;;
2022/08/17 03:09:41;;;;;;;10.35;7;;;;;;;15.08;65.19727;94716.19;;;;
2022/08/17 03:10:41;;;;;;;10.35;7;;;;;;;15.08;65.19727;94716.19;;;;
2022/08/17 03:11:43;;;;;;;10.35;7;;;;;;;15.08;65.19727;94716.19;;;;
2022/08/17 03:12:44;;;;;;;10.35;7;;;;;;;15.08;65.19727;94716.19;;;;
2022/08/17 03:13:45;;;;;;;10.35;7;;;;;;;15.08;65.19727;94716.19;;;;
2022/08/17 03:14:46;;;;;;;10.35;7;;;;;;;15.08;65.19727;94716.19;;;;
2022/08/17 03:15:46;;;;;;;9.05;7.199999;;;;;;;14.98;65.45605;94724.88;;;;
2022/08/17 03:16:47;;;;;;;9.05;7.199999;;;;;;;14.98;65.45605;94724.88;;;;
2022/08/17 03:17:48;;;;;;;9.05;7.199999;;;;;;;14.98;65.45605;94724.88;;;;
2022/08/17 03:18:48;;;;;;;9.05;7.199999;;;;;;;14.98;65.45605;94724.88;;;;
2022/08/17 03:19:49;;;;;;;9.05;7.199999;;;;;;;14.98;65.45605;94724.88;;;;
2022/08/17 03:20:49;;;;;;;9.05;7.199999;;;;;;;14.98;65.45605;94724.88;;;;
2022/08/17 03:21:51;;;;;;;9.05;7.199999;;;;;;;14.98;65.45605;94724.88;;;;
2022/08/17 03:22:51;;;;;;;9.05;7.199999;;;;;;;14.98;65.45605;94724.88;;;;
2022/08/17 03:23:54;;;;;;;9.05;7.199999;;;;;;;14.98;65.45605;94724.88;;;;
2022/08/17 03:24:55;;;;;;;9.05;7.199999;;;;;;;14.98;65.45605;94724.88;;;;
2022/08/17 03:25:55;;;;;;;9.05;7.199999;;;;;;;14.98;65.45605;94724.88;;;;
2022/08/17 03:26:57;;;;;;;8.049999;7.249999;;;;;;;14.96;65.69141;94723.95;;;;
2022/08/17 03:27:58;;;;;;;8.049999;7.249999;;;;;;;14.96;65.69141;94723.95;;;;
2022/08/17 03:28:58;;;;;;;8.049999;7.249999;;;;;;;14.96;65.69141;94723.95;;;;
2022/08/17 03:29:59;;;;;;;8.049999;7.249999;;;;;;;14.96;65.69141;94723.95;;;;
2022/08/17 03:30:59;;;;;;;8.049999;7.249999;;;;;;;14.96;65.69141;94723.95;;;;
2022/08/17 03:32:00;;;;;;;8.049999;7.249999;;;;;;;14.96;65.69141;94723.95;;;;
2022/08/17 03:33:09;;;;;;;8.049999;7.249999;;;;;;;14.96;65.69141;94723.95;;;;
2022/08/17 03:34:10;;;;;;;8.049999;7.249999;;;;;;;14.96;65.69141;94723.95;;;;
2022/08/17 03:35:11;;;;;;;8.049999;7.249999;;;;;;;14.96;65.69141;94723.95;;;;
2022/08/17 03:36:16;;;;;;;8.049999;7.249999;;;;;;;14.96;65.69141;94723.95;;;;
2022/08/17 03:37:16;;;;;;;7.149999;6.55;;;;;;;14.88;65.96191;94732.39;;;;
2022/08/17 03:38:17;;;;;;;7.149999;6.55;;;;;;;14.88;65.96191;94732.39;;;;
2022/08/17 03:39:18;;;;;;;7.149999;6.55;;;;;;;14.88;65.96191;94732.39;;;;
2022/08/17 03:40:19;;;;;;;7.149999;6.55;;;;;;;14.88;65.96191;94732.39;;;;
2022/08/17 03:41:19;;;;;;;7.149999;6.55;;;;;;;14.88;65.96191;94732.39;;;;
2022/08/17 03:42:20;;;;;;;7.149999;6.55;;;;;;;14.88;65.96191;94732.39;;;;
2022/08/17 03:43:23;;;;;;;7.149999;6.55;;;;;;;14.88;65.96191;94732.39;;;;
2022/08/17 03:44:23;;;;;;;7.149999;6.55;;;;;;;14.88;65.96191;94732.39;;;;
2022/08/17 03:56:41;;;;;;;7.149999;6.55;;;;;;;14.88;65.96191;94732.39;;;;
2022/08/17 03:57:44;;;;;;;8.400001;7.600001;;;;;;;14.91;66.25;94744.78;;;;
2022/08/17 03:58:45;;;;;;;8.1;7.349999;;;;;;;14.83;66.57715;94743.39;;;;
2022/08/17 03:59:46;;;;;;;8.1;7.349999;;;;;;;14.83;66.57715;94743.39;;;;
2022/08/17 04:00:46;;;;;;;8.1;7.349999;;;;;;;14.83;66.57715;94743.39;;;;
2022/08/17 04:01:47;;;;;;;8.1;7.349999;;;;;;;14.83;66.57715;94743.39;;;;
2022/08/17 04:02:50;;;;;;;8.1;7.349999;;;;;;;14.83;66.57715;94743.39;;;;
2022/08/17 04:03:51;;;;;;;8.1;7.349999;;;;;;;14.83;66.57715;94743.39;;;;
2022/08/17 04:04:52;;;;;;;8.1;7.349999;;;;;;;14.83;66.57715;94743.39;;;;
2022/08/17 04:05:53;;;;;;;8.1;7.349999;;;;;;;14.83;66.57715;94743.39;;;;
2022/08/17 04:06:53;;;;;;;8.1;7.349999;;;;;;;14.83;66.57715;94743.39;;;;
2022/08/17 04:07:54;;;;;;;8.1;7.349999;;;;;;;14.83;66.57715;94743.39;;;;
2022/08/17 04:08:54;;;;;;;8.1;7.349999;;;;;;;14.83;66.57715;94743.39;;;;
2022/08/17 04:09:56;;;;;;;8.249998;7.55;;;;;;;14.85;66.71094;94754.57;;;;
2022/08/17 04:10:57;;;;;;;8.249998;7.55;;;;;;;14.85;66.71094;94754.57;;;;
2022/08/17 04:11:59;;;;;;;8.249998;7.55;;;;;;;14.85;66.71094;94754.57;;;;
2022/08/17 04:13:00;;;;;;;8.249998;7.55;;;;;;;14.85;66.71094;94754.57;;;;
2022/08/17 04:14:01;;;;;;;8.249998;7.55;;;;;;;14.85;66.71094;94754.57;;;;
2022/08/17 04:15:03;;;;;;;8.249998;7.55;;;;;;;14.85;66.71094;94754.57;;;;
2022/08/17 04:16:04;;;;;;;8.249998;7.55;;;;;;;14.85;66.71094;94754.57;;;;
2022/08/17 04:17:05;;;;;;;8.249998;7.55;;;;;;;14.85;66.71094;94754.57;;;;
2022/08/17 04:18:06;;;;;;;8.249998;7.55;;;;;;;14.85;66.71094;94754.57;;;;
2022/08/17 04:19:07;;;;;;;8.249998;7.55;;;;;;;14.85;66.71094;94754.57;;;;
2022/08/17 04:20:07;;;;;;;7.649999;7;;;;;;;14.83;66.82617;94753.22;;;;
2022/08/17 04:21:09;;;;;;;7.649999;7;;;;;;;14.83;66.82617;94753.22;;;;
2022/08/17 04:22:09;;;;;;;7.649999;7;;;;;;;14.83;66.82617;94753.22;;;;
2022/08/17 04:23:10;;;;;;;7.649999;7;;;;;;;14.83;66.82617;94753.22;;;;
2022/08/17 04:24:14;;;;;;;7.649999;7;;;;;;;14.83;66.82617;94753.22;;;;
2022/08/17 04:25:15;;;;;;;7.649999;7;;;;;;;14.83;66.82617;94753.22;;;;
2022/08/17 04:26:17;;;;;;;7.649999;7;;;;;;;14.83;66.82617;94753.22;;;;
2022/08/17 04:27:19;;;;;;;7.649999;7;;;;;;;14.83;66.82617;94753.22;;;;
2022/08/17 04:28:19;;;;;;;7.649999;7;;;;;;;14.83;66.82617;94753.22;;;;
2022/08/17 04:29:20;;;;;;;7.649999;7;;;;;;;14.83;66.82617;94753.22;;;;
2022/08/17 04:30:21;;;;;;;8.700001;7;;;;;;;14.89;66.8584;94734.39;;;;
2022/08/17 04:31:22;;;;;;;8.700001;7;;;;;;;14.89;66.8584;94734.39;;;;
2022/08/17 04:32:23;;;;;;;8.700001;7;;;;;;;14.89;66.8584;94734.39;;;;
2022/08/17 04:33:24;;;;;;;8.700001;7;;;;;;;14.89;66.8584;94734.39;;;;
2022/08/17 04:34:27;;;;;;;8.700001;7;;;;;;;14.89;66.8584;94734.39;;;;
2022/08/17 04:35:27;;;;;;;8.700001;7;;;;;;;14.89;66.8584;94734.39;;;;
2022/08/17 04:36:31;;;;;;;8.700001;7;;;;;;;14.89;66.8584;94734.39;;;;
2022/08/17 04:37:31;;;;;;;8.700001;7;;;;;;;14.89;66.8584;94734.39;;;;
2022/08/17 04:38:32;;;;;;;8.700001;7;;;;;;;14.89;66.8584;94734.39;;;;
2022/08/17 04:39:34;;;;;;;8.700001;7;;;;;;;14.89;66.8584;94734.39;;;;
2022/08/17 04:45:47;;;;;;;8;7.3;;;;;;;14.92;66.89551;94734.41;;;;
2022/08/17 04:46:50;;;;;;;8;7.3;;;;;;;14.92;66.89551;94734.41;;;;
2022/08/17 04:47:51;;;;;;;8;7.3;;;;;;;14.92;66.89551;94734.41;;;;
2022/08/17 04:48:51;;;;;;;8;7.3;;;;;;;14.92;66.89551;94734.41;;;;
2022/08/17 04:49:54;;;;;;;8;7.3;;;;;;;14.92;66.89551;94734.41;;;;
2022/08/17 04:50:54;;;;;;;8;7.3;;;;;;;14.92;66.89551;94734.41;;;;
2022/08/17 04:51:55;;;;;;;8;7.199999;;;;;;;15.05;66.85938;94732.67;;;;
2022/08/17 04:52:55;;;;;;;8;7.199999;;;;;;;15.05;66.85938;94732.67;;;;
2022/08/17 04:53:56;;;;;;;8;7.199999;;;;;;;15.05;66.85938;94732.67;;;;
2022/08/17 04:54:58;;;;;;;8;7.199999;;;;;;;15.05;66.85938;94732.67;;;;
2022/08/17 04:56:02;;;;;;;8;7.199999;;;;;;;15.05;66.85938;94732.67;;;;
2022/08/17 04:57:03;;;;;;;8;7.199999;;;;;;;15.05;66.85938;94732.67;;;;
2022/08/17 04:58:04;;;;;;;8;7.199999;;;;;;;15.05;66.85938;94732.67;;;;
2022/08/17 04:59:05;;;;;;;8;7.199999;;;;;;;15.05;66.85938;94732.67;;;;
2022/08/17 05:00:08;;;;;;;8;7.199999;;;;;;;15.05;66.85938;94732.67;;;;
2022/08/17 05:01:10;;;;;;;8;7.199999;;;;;;;15.05;66.85938;94732.67;;;;
2022/08/17 05:02:11;;;;;;;8;7.199999;;;;;;;15.05;66.85938;94732.67;;;;
2022/08/17 05:03:12;;;;;;;7.8;7.100001;;;;;;;15.16;66.86621;94733.84;;;;
2022/08/17 05:04:13;;;;;;;7.8;7.100001;;;;;;;15.16;66.86621;94733.84;;;;
2022/08/17 05:05:15;;;;;;;7.8;7.100001;;;;;;;15.16;66.86621;94733.84;;;;
2022/08/17 05:06:18;;;;;;;7.8;7.100001;;;;;;;15.16;66.86621;94733.84;;;;
2022/08/17 05:07:20;;;;;;;7.8;7.100001;;;;;;;15.16;66.86621;94733.84;;;;
2022/08/17 05:08:20;;;;;;;7.8;7.100001;;;;;;;15.16;66.86621;94733.84;;;;
2022/08/17 05:09:20;;;;;;;7.8;7.100001;;;;;;;15.16;66.86621;94733.84;;;;
2022/08/17 05:10:21;;;;;;;7.8;7.100001;;;;;;;15.16;66.86621;94733.84;;;;
2022/08/17 05:11:24;;;;;;;7.8;7.100001;;;;;;;15.16;66.86621;94733.84;;;;
2022/08/17 05:12:27;;;;;;;7.8;7.100001;;;;;;;15.16;66.86621;94733.84;;;;
2022/08/17 05:13:28;;;;;;;7.55;6.850001;;;;;;;15.41;66.91504;94754.18;;;;
2022/08/17 05:14:29;;;;;;;7.55;6.850001;;;;;;;15.41;66.91504;94754.18;;;;
2022/08/17 05:15:29;;;;;;;7.55;6.850001;;;;;;;15.41;66.91504;94754.18;;;;
2022/08/17 05:16:30;;;;;;;7.55;6.850001;;;;;;;15.41;66.91504;94754.18;;;;
2022/08/17 05:17:31;;;;;;;7.55;6.850001;;;;;;;15.41;66.91504;94754.18;;;;
2022/08/17 05:18:32;;;;;;;7.55;6.850001;;;;;;;15.41;66.91504;94754.18;;;;
2022/08/17 05:19:32;;;;;;;7.55;6.850001;;;;;;;15.41;66.91504;94754.18;;;;
2022/08/17 05:20:33;;;;;;;7.55;6.850001;;;;;;;15.41;66.91504;94754.18;;;;
2022/08/17 05:21:34;;;;;;;7.55;6.850001;;;;;;;15.41;66.91504;94754.18;;;;
2022/08/17 05:22:35;;;;;;;7.55;6.850001;;;;;;;15.41;66.91504;94754.18;;;;
2022/08/17 05:23:45;;;;;;;6.849999;6.25;;;;;;;15.73;66.88672;94741.11;;;;
2022/08/17 05:24:46;;;;;;;6.849999;6.25;;;;;;;15.73;66.88672;94741.11;;;;
2022/08/17 05:25:46;;;;;;;6.849999;6.25;;;;;;;15.73;66.88672;94741.11;;;;
2022/08/17 05:26:50;;;;;;;6.849999;6.25;;;;;;;15.73;66.88672;94741.11;;;;
2022/08/17 05:27:51;;;;;;;6.849999;6.25;;;;;;;15.73;66.88672;94741.11;;;;
2022/08/17 05:28:52;;;;;;;6.849999;6.25;;;;;;;15.73;66.88672;94741.11;;;;
2022/08/17 05:29:54;;;;;;;6.849999;6.25;;;;;;;15.73;66.88672;94741.11;;;;
2022/08/17 05:30:54;;;;;;;6.849999;6.25;;;;;;;15.73;66.88672;94741.11;;;;
2022/08/17 05:31:58;;;;;;;6.849999;6.25;;;;;;;15.73;66.88672;94741.11;;;;
2022/08/17 05:33:07;;;;;;;6.849999;6.25;;;;;;;15.73;66.88672;94741.11;;;;
2022/08/17 05:34:10;;;;;;;6.849999;6.25;;;;;;;15.73;66.88672;94741.11;;;;
2022/08/17 05:35:10;;;;;;;6.55;5.95;;;;;;;16.31;66.51563;94754.75;;;;
2022/08/17 05:36:11;;;;;;;6.55;5.95;;;;;;;16.31;66.51563;94754.75;;;;
2022/08/17 05:37:13;;;;;;;6.55;5.95;;;;;;;16.31;66.51563;94754.75;;;;
2022/08/17 05:38:14;;;;;;;6.55;5.95;;;;;;;16.31;66.51563;94754.75;;;;
2022/08/17 05:39:16;;;;;;;6.55;5.95;;;;;;;16.31;66.51563;94754.75;;;;
2022/08/17 05:40:17;;;;;;;6.55;5.95;;;;;;;16.31;66.51563;94754.75;;;;
2022/08/17 05:41:19;;;;;;;6.55;5.95;;;;;;;16.31;66.51563;94754.75;;;;
2022/08/17 05:42:20;;;;;;;6.55;5.95;;;;;;;16.31;66.51563;94754.75;;;;
2022/08/17 05:43:21;;;;;;;6.55;5.95;;;;;;;16.31;66.51563;94754.75;;;;
2022/08/17 05:44:23;;;;;;;6.55;5.95;;;;;;;16.31;66.51563;94754.75;;;;
2022/08/17 05:45:24;;;;;;;6.5;5.9;;;;;;;16.79;65.89941;94742.03;;;;
2022/08/17 05:46:24;;;;;;;6.5;5.9;;;;;;;16.79;65.89941;94742.03;;;;
2022/08/17 05:47:27;;;;;;;6.5;5.9;;;;;;;16.79;65.89941;94742.03;;;;
2022/08/17 05:48:29;;;;;;;6.5;5.9;;;;;;;16.79;65.89941;94742.03;;;;
2022/08/17 05:49:42;;;;;;;6.5;5.9;;;;;;;16.79;65.89941;94742.03;;;;
2022/08/17 05:50:42;;;;;;;6.5;5.9;;;;;;;16.79;65.89941;94742.03;;;;
2022/08/17 05:51:54;;;;;;;6.5;5.9;;;;;;;16.79;65.89941;94742.03;;;;
2022/08/17 05:53:08;;;;;;;6.5;5.9;;;;;;;16.79;65.89941;94742.03;;;;